Aérodrome :
LOGIN :

S'inscrire | Disclaimer

   EN    FR    IT 

 










Légende :    VFR   VFR Marginal   IFR   IFR Intensif   IFR Très Intensif
Visi : 
Plafond : 
>= 8 km
>= 3000ft
5 à 8 km
1000 à 3000 ft
1500m à 5 km
500 à 1000 ft
800 à 1500m
200 à 500 ft
< 800m
< 200 ft
Symboles :   Orages  Brouillard  Fortes neiges  Fortes précipitations  Vent > 20 kt
SIGMETs :   Divers  Orages  Givrage  Turbulence  Onde Orograph.  Cendres Volcan.







- Altitude de l'aérodrome : 600 ft
- Code IATA : VIE


LOWW - Vienna Schwechat

DERNIER METAR :
  • 251120Z 35012KT 9999 FEW030 M07/M13 Q1025 R88/15//95 NOSIG

METARs EXPIRÉS :
  • 251050Z 35011KT 9999 FEW022 BKN028 M07/M13 Q1025 R88/15//95 NOSIG
  • 251020Z 34011KT 9999 FEW022 BKN026 M08/M13 Q1026 R88/15//95 NOSIG
  • 250950Z 35012KT 9999 FEW024 SCT026 M08/M13 Q1026 R88/15//95 NOSIG
  • 250920Z 34011KT 9999 FEW022 SCT024 M08/M13 Q1026 R88/15//95 NOSIG
  • 250850Z 36011KT 9999 FEW022 SCT024 M09/M14 Q1026 R88/15//95 NOSIG

TAF TAF LOWW
Valide du 25 à 12h jusqu'au 26 à 18h UTC


251115Z 2512/2618 35012KT 9999 SCT040 TXM06/2514Z TNM11/2602Z
TEMPO 2512/2519 01017KT
BECMG 2519/2521 34007KT CAVOK
BECMG 2608/2612 35013KT 9999 SCT040
TEMPO 2610/2618 36015G25KT
Pas de NOTAMs connus pour ce terrain.



MET'MAP, la Météo Aéronautique d'un coup d'oeil ! - Copyright ORBIFLY Décembre 2007 - Disclaimer

ORBIFLY MET'MAP TEAM :

Programmation & Développement : Alexandra Zaïnal
Conception & Développement : Baudouin d'Aumeries
Co-Programmation & Développement : Marc-Olivier Méhu
Soutien technique & logistique : Manuel Goepfert

Contact : metmap@orbifly.com




SOURCES & CREDITS :

   NOAA